WXM80 ListenWXM80 Stop

You find our weather info also at:

UK Metoffice

WeatherCloud

Weather Underground

Northeastern Weather Network

AWEKAS

Citizen Weather Observer Program (CWOP)

HAMweather, WeatherForYou, PWS Weather


Weather Underground History page Text

Daily Summary for August 11, 2017 Units:  English    Metric   Both
« Previous Day
Next Day »
Daily Weekly Monthly Yearly Custom
  High: Low: Average:
Temperature: 85.4 °F 63.3 °F 72.9 °F
Dew Point: 70.1 °F 56.9 °F 62.8 °F
Humidity: 97 % 50 % 73 %
Wind Speed: 6.0 mph 0.0 mph 0.7 mph
Wind Gust: 13.8 mph - -
Wind:- - SSE
Pressure: 30.14 in 29.96 in -
Precipitation: 0.00 in    
Historical Graphs
 
 
Tabular Data for August 11, 2017
Time Temperature Dew Point Pressure Wind Wind Speed Wind Gust Humidity Rainfall Rate (Hourly)
00:01 65.8 °F 61.5 °F 30.13 in Calm     86 % 0.00 in
00:06 65.6 °F 61.6 °F 30.13 in Calm     87 % 0.00 in
00:11 65.5 °F 61.5 °F 30.13 in Calm     87 % 0.00 in
00:17 65.4 °F 61.8 °F 30.14 in Calm     88 % 0.00 in
00:22 65.3 °F 61.7 °F 30.13 in Calm     88 % 0.00 in
00:27 65.1 °F 61.1 °F 30.14 in Calm     87 % 0.00 in
00:32 65.0 °F 61.4 °F 30.14 in Calm     88 % 0.00 in
00:37 64.9 °F 61.3 °F 30.14 in Calm     88 % 0.00 in
00:42 64.8 °F 61.2 °F 30.14 in Calm     88 % 0.00 in
00:47 64.7 °F 61.1 °F 30.14 in Calm     88 % 0.00 in
00:52 64.6 °F 61.3 °F 30.13 in Calm     89 % 0.00 in
00:57 64.5 °F 61.2 °F 30.13 in Calm     89 % 0.00 in
01:02 64.4 °F 61.1 °F 30.13 in Calm     89 % 0.00 in
01:07 64.3 °F 61.0 °F 30.13 in Calm     89 % 0.00 in
01:12 64.2 °F 60.9 °F 30.13 in Calm     89 % 0.00 in
01:17 64.1 °F 60.8 °F 30.13 in Calm     89 % 0.00 in
01:22 64.0 °F 60.7 °F 30.13 in Calm     89 % 0.00 in
01:27 63.9 °F 60.6 °F 30.13 in Calm     89 % 0.00 in
01:32 63.8 °F 60.5 °F 30.13 in Calm     89 % 0.00 in
01:37 63.7 °F 60.4 °F 30.13 in Calm     89 % 0.00 in
01:42 63.6 °F 60.3 °F 30.13 in Calm     89 % 0.00 in
01:47 63.5 °F 60.2 °F 30.13 in Calm     89 % 0.00 in
01:53 63.5 °F 60.5 °F 30.13 in Calm     90 % 0.00 in
01:58 63.5 °F 60.8 °F 30.13 in Calm     91 % 0.00 in
02:03 63.4 °F 60.7 °F 30.13 in Calm     91 % 0.00 in
02:08 63.4 °F 60.7 °F 30.13 in Calm     91 % 0.00 in
02:13 63.4 °F 60.7 °F 30.12 in Calm     91 % 0.00 in
02:18 63.3 °F 60.6 °F 30.12 in Calm     91 % 0.00 in
02:23 63.3 °F 60.6 °F 30.12 in Calm     91 % 0.00 in
02:28 63.3 °F 60.9 °F 30.12 in Calm     92 % 0.00 in
02:33 63.3 °F 60.9 °F 30.12 in Calm     92 % 0.00 in
02:38 63.3 °F 60.9 °F 30.12 in Calm     92 % 0.00 in
02:43 63.4 °F 61.0 °F 30.12 in Calm     92 % 0.00 in
02:48 63.4 °F 61.3 °F 30.12 in Calm     93 % 0.00 in
02:53 63.5 °F 61.4 °F 30.12 in Calm     93 % 0.00 in
02:59 63.6 °F 61.5 °F 30.12 in Calm     93 % 0.00 in
03:04 63.6 °F 61.5 °F 30.12 in Calm     93 % 0.00 in
03:09 63.6 °F 61.5 °F 30.12 in Calm     93 % 0.00 in
03:14 63.6 °F 61.8 °F 30.12 in Calm     94 % 0.00 in
03:19 63.7 °F 61.9 °F 30.12 in Calm     94 % 0.00 in
03:24 63.7 °F 61.9 °F 30.12 in Calm     94 % 0.00 in
03:29 63.8 °F 62.0 °F 30.12 in Calm     94 % 0.00 in
03:34 63.8 °F 62.0 °F 30.12 in Calm     94 % 0.00 in
03:39 63.8 °F 62.0 °F 30.12 in Calm     94 % 0.00 in
03:44 63.9 °F 62.1 °F 30.12 in Calm     94 % 0.00 in
03:49 63.9 °F 62.1 °F 30.12 in Calm     94 % 0.00 in
03:54 64.0 °F 62.2 °F 30.12 in Calm     94 % 0.00 in
03:59 64.0 °F 62.2 °F 30.12 in Calm     94 % 0.00 in
04:04 64.1 °F 62.3 °F 30.12 in Calm     94 % 0.00 in
04:09 64.1 °F 62.3 °F 30.12 in Calm     94 % 0.00 in
04:14 64.1 °F 62.3 °F 30.11 in Calm     94 % 0.00 in
04:19 64.2 °F 62.4 °F 30.11 in Calm     94 % 0.00 in
04:24 64.2 °F 62.4 °F 30.11 in Calm     94 % 0.00 in
04:29 64.3 °F 62.5 °F 30.11 in Calm     94 % 0.00 in
04:34 64.3 °F 62.5 °F 30.11 in Calm     94 % 0.00 in
04:40 64.3 °F 62.5 °F 30.11 in Calm     94 % 0.00 in
04:45 64.4 °F 62.6 °F 30.11 in Calm     94 % 0.00 in
04:50 64.4 °F 62.6 °F 30.12 in Calm     94 % 0.00 in
04:55 64.4 °F 62.6 °F 30.12 in Calm     94 % 0.00 in
05:00 64.4 °F 62.6 °F 30.11 in Calm     94 % 0.00 in
05:05 64.4 °F 62.6 °F 30.11 in Calm     94 % 0.00 in
05:10 64.4 °F 62.6 °F 30.11 in Calm     94 % 0.00 in
05:15 64.4 °F 62.6 °F 30.11 in Calm     94 % 0.00 in
05:20 64.4 °F 62.6 °F 30.11 in Calm     94 % 0.00 in
05:25 64.3 °F 62.5 °F 30.11 in Calm     94 % 0.00 in
05:30 64.3 °F 62.5 °F 30.11 in Calm     94 % 0.00 in
05:35 64.2 °F 62.4 °F 30.11 in Calm     94 % 0.00 in
05:40 64.1 °F 62.0 °F 30.11 in Calm     93 % 0.00 in
05:45 64.0 °F 61.9 °F 30.11 in Calm     93 % 0.00 in
05:50 64.0 °F 61.9 °F 30.11 in Calm     93 % 0.00 in
05:55 63.8 °F 61.7 °F 30.11 in Calm     93 % 0.00 in
06:00 63.8 °F 61.7 °F 30.11 in Calm     93 % 0.00 in
06:05 63.6 °F 61.5 °F 30.11 in Calm     93 % 0.00 in
06:10 63.6 °F 61.5 °F 30.11 in Calm     93 % 0.00 in
06:15 63.5 °F 61.4 °F 30.11 in Calm     93 % 0.00 in
06:20 63.4 °F 61.3 °F 30.11 in Calm     93 % 0.00 in
06:26 63.4 °F 61.3 °F 30.11 in Calm     93 % 0.00 in
06:31 63.3 °F 61.3 °F 30.11 in Calm     93 % 0.00 in
06:36 63.3 °F 61.2 °F 30.11 in Calm     93 % 0.00 in
06:41 63.4 °F 61.6 °F 30.11 in Calm     94 % 0.00 in
06:46 63.4 °F 61.6 °F 30.11 in Calm     94 % 0.00 in
06:51 63.5 °F 61.7 °F 30.11 in Calm     94 % 0.00 in
06:56 63.6 °F 61.8 °F 30.11 in Calm     94 % 0.00 in
07:01 63.7 °F 62.2 °F 30.11 in Calm     95 % 0.00 in
07:06 63.8 °F 62.3 °F 30.11 in Calm     95 % 0.00 in
07:11 63.9 °F 62.4 °F 30.11 in Calm     95 % 0.00 in
07:16 64.3 °F 63.1 °F 30.12 in Calm     96 % 0.00 in
07:21 64.7 °F 63.5 °F 30.11 in Calm     96 % 0.00 in
07:26 65.2 °F 64.3 °F 30.11 in Calm     97 % 0.00 in
07:31 65.7 °F 64.5 °F 30.11 in Calm     96 % 0.00 in
07:36 65.9 °F 65.0 °F 30.12 in Calm     97 % 0.00 in
07:41 66.1 °F 64.9 °F 30.12 in Calm     96 % 0.00 in
07:46 66.3 °F 65.1 °F 30.12 in Calm     96 % 0.00 in
07:51 66.5 °F 65.0 °F 30.12 in SSW 0.5 mph 1.2 mph 95 % 0.00 in
07:56 66.7 °F 64.9 °F 30.12 in Calm   1.2 mph 94 % 0.00 in
08:01 67.0 °F 64.6 °F 30.12 in SSW 0.1 mph 1.2 mph 92 % 0.00 in
08:06 67.3 °F 64.6 °F 30.12 in SSW 0.3 mph 2.3 mph 91 % 0.00 in
08:11 67.6 °F 64.2 °F 30.12 in SSW 0.1 mph 1.0 mph 89 % 0.00 in
08:16 67.9 °F 64.2 °F 30.12 in Calm   1.2 mph 88 % 0.00 in
08:21 68.3 °F 63.9 °F 30.11 in Calm     86 % 0.00 in
08:26 68.6 °F 63.9 °F 30.11 in WSW 1.0 mph 3.5 mph 85 % 0.00 in
08:31 68.9 °F 63.2 °F 30.12 in WSW 0.4 mph 2.3 mph 82 % 0.00 in
08:37 69.1 °F 63.0 °F 30.12 in SW 1.4 mph 2.0 mph 81 % 0.00 in
08:42 69.4 °F 63.0 °F 30.12 in WSW 1.1 mph 3.5 mph 80 % 0.00 in
08:47 69.6 °F 62.8 °F 30.12 in WSW 2.6 mph 3.5 mph 79 % 0.00 in
08:52 69.8 °F 62.3 °F 30.12 in WSW 1.7 mph 3.5 mph 77 % 0.00 in
08:57 70.1 °F 61.8 °F 30.11 in SW 0.3 mph 1.2 mph 75 % 0.00 in
09:02 70.5 °F 59.8 °F 30.11 in Calm   2.3 mph 69 % 0.00 in
09:07 71.0 °F 61.1 °F 30.11 in SE 0.6 mph 3.5 mph 71 % 0.00 in
09:12 71.4 °F 60.3 °F 30.11 in Calm   1.2 mph 68 % 0.00 in
09:17 71.8 °F 60.7 °F 30.11 in SW 1.7 mph 3.0 mph 68 % 0.00 in
09:22 72.2 °F 60.6 °F 30.10 in SW 0.3 mph 1.2 mph 67 % 0.00 in
09:27 72.7 °F 61.1 °F 30.10 in Calm   1.2 mph 67 % 0.00 in
09:32 73.2 °F 60.7 °F 30.10 in SW 0.9 mph 2.3 mph 65 % 0.00 in
09:37 73.5 °F 62.3 °F 30.10 in Calm   2.3 mph 68 % 0.00 in
09:42 73.9 °F 61.4 °F 30.10 in SE 1.1 mph 3.0 mph 65 % 0.00 in
09:47 74.6 °F 62.9 °F 30.10 in SE 1.1 mph 1.2 mph 67 % 0.00 in
09:52 75.0 °F 63.3 °F 30.10 in Calm     67 % 0.00 in
09:57 75.4 °F 63.2 °F 30.10 in SE 0.4 mph 1.2 mph 66 % 0.00 in
10:02 76.0 °F 63.4 °F 30.10 in SW 2.2 mph 3.5 mph 65 % 0.00 in
10:08 76.6 °F 63.1 °F 30.10 in SW 0.3 mph 2.3 mph 63 % 0.00 in
10:13 77.4 °F 63.4 °F 30.10 in SSW 0.2 mph 2.3 mph 62 % 0.00 in
10:18 78.5 °F 65.8 °F 30.10 in Calm   3.5 mph 65 % 0.00 in
10:23 79.1 °F 65.4 °F 30.10 in Calm     63 % 0.00 in
10:28 80.0 °F 66.3 °F 30.10 in SE 2.5 mph 5.0 mph 63 % 0.00 in
10:33 80.4 °F 65.2 °F 30.10 in SSE 0.1 mph 1.2 mph 60 % 0.00 in
10:43 81.3 °F 66.6 °F 30.10 in SSE 0.2 mph 3.0 mph 61 % 0.00 in
10:48 81.9 °F 66.2 °F 30.10 in Calm     59 % 0.00 in
10:53 82.3 °F 66.0 °F 30.10 in Calm     58 % 0.00 in
10:58 82.9 °F 66.6 °F 30.10 in ENE 0.5 mph 2.0 mph 58 % 0.00 in
11:03 83.0 °F 65.7 °F 30.10 in ENE 0.6 mph 3.5 mph 56 % 0.00 in
11:08 83.2 °F 66.4 °F 30.10 in North 0.6 mph 3.5 mph 57 % 0.00 in
11:13 83.2 °F 66.9 °F 30.10 in NE 1.4 mph 3.5 mph 58 % 0.00 in
11:18 83.2 °F 66.4 °F 30.10 in NNE 2.0 mph 3.5 mph 57 % 0.00 in
11:23 83.4 °F 65.5 °F 30.10 in NNE 0.6 mph 2.3 mph 55 % 0.00 in
11:28 83.7 °F 65.8 °F 30.09 in NNE 1.7 mph 4.6 mph 55 % 0.00 in
11:33 84.1 °F 66.7 °F 30.10 in NE 2.7 mph 5.0 mph 56 % 0.00 in
11:38 84.3 °F 67.4 °F 30.09 in North 2.7 mph 6.0 mph 57 % 0.00 in
11:43 84.3 °F 65.8 °F 30.10 in ENE 0.6 mph 3.5 mph 54 % 0.00 in
11:48 84.5 °F 65.5 °F 30.09 in NNE 2.5 mph 3.5 mph 53 % 0.00 in
11:53 84.7 °F 66.2 °F 30.09 in NE 2.0 mph 3.5 mph 54 % 0.00 in
11:58 84.9 °F 65.9 °F 30.09 in North 3.1 mph 5.8 mph 53 % 0.00 in
12:03 85.1 °F 66.0 °F 30.09 in North 2.6 mph 5.8 mph 53 % 0.00 in
12:08 85.4 °F 67.4 °F 30.09 in North 2.3 mph 5.0 mph 55 % 0.00 in
12:13 85.2 °F 65.6 °F 30.09 in NNE 1.0 mph 3.0 mph 52 % 0.00 in
12:18 84.9 °F 65.3 °F 30.09 in North 2.0 mph 5.8 mph 52 % 0.00 in
12:24 84.6 °F 66.1 °F 30.08 in North 3.6 mph 4.6 mph 54 % 0.00 in
12:29 84.2 °F 66.3 °F 30.08 in NE 0.7 mph 5.8 mph 55 % 0.00 in
12:34 84.1 °F 67.7 °F 30.08 in NE 1.9 mph 4.6 mph 58 % 0.00 in
12:39 84.1 °F 66.2 °F 30.08 in ENE 1.6 mph 3.5 mph 55 % 0.00 in
12:44 84.1 °F 66.2 °F 30.08 in ENE 1.6 mph 4.6 mph 55 % 0.00 in
12:49 84.2 °F 67.8 °F 30.08 in ENE 1.6 mph 3.5 mph 58 % 0.00 in
12:54 84.2 °F 65.8 °F 30.08 in East 1.1 mph 3.5 mph 54 % 0.00 in
12:59 84.0 °F 67.6 °F 30.08 in NE 1.0 mph 3.5 mph 58 % 0.00 in
13:04 84.1 °F 68.2 °F 30.08 in ENE 3.0 mph 6.9 mph 59 % 0.00 in
13:09 84.1 °F 70.1 °F 30.08 in NNE 0.6 mph 3.5 mph 63 % 0.00 in
13:14 84.1 °F 68.2 °F 30.07 in ENE 1.8 mph 3.5 mph 59 % 0.00 in
13:19 83.8 °F 68.4 °F 30.07 in ENE 1.1 mph 3.5 mph 60 % 0.00 in
13:24 83.7 °F 68.3 °F 30.06 in ENE 3.5 mph 4.0 mph 60 % 0.00 in
13:30 83.4 °F 68.5 °F 30.07 in ENE 3.8 mph 5.0 mph 61 % 0.00 in
13:35 83.3 °F 69.4 °F 30.07 in ENE 1.7 mph 4.6 mph 63 % 0.00 in
13:40 83.3 °F 69.4 °F 30.06 in NE 2.3 mph 3.5 mph 63 % 0.00 in
13:45 83.5 °F 69.1 °F 30.06 in NNE 5.3 mph 8.1 mph 62 % 0.00 in
13:50 83.5 °F 68.6 °F 30.07 in NNW 1.6 mph 3.5 mph 61 % 0.00 in
13:55 83.4 °F 68.1 °F 30.06 in SW 3.8 mph 6.9 mph 60 % 0.00 in
14:00 83.1 °F 66.3 °F 30.07 in SW 1.2 mph 3.5 mph 57 % 0.00 in
14:05 82.7 °F 65.9 °F 30.07 in SSW 1.4 mph 3.0 mph 57 % 0.00 in
14:10 82.7 °F 66.9 °F 30.07 in SSW 2.4 mph 4.0 mph 59 % 0.00 in
14:15 82.8 °F 66.0 °F 30.07 in SW 3.2 mph 5.8 mph 57 % 0.00 in
14:20 82.7 °F 65.4 °F 30.07 in South 1.4 mph 3.0 mph 56 % 0.00 in
14:25 82.3 °F 64.0 °F 30.07 in SE 0.1 mph 3.5 mph 54 % 0.00 in
14:30 82.1 °F 64.3 °F 30.06 in SSW 0.4 mph 3.5 mph 55 % 0.00 in
14:35 81.7 °F 64.5 °F 30.07 in South 1.6 mph 3.5 mph 56 % 0.00 in
14:40 81.6 °F 65.4 °F 30.07 in SSE 1.0 mph 3.5 mph 58 % 0.00 in
14:45 81.5 °F 64.3 °F 30.06 in SW 0.8 mph 3.5 mph 56 % 0.00 in
14:50 81.6 °F 63.9 °F 30.06 in SE 6.0 mph 13.8 mph 55 % 0.00 in
14:55 81.4 °F 64.7 °F 30.06 in SE 1.3 mph 3.5 mph 57 % 0.00 in
15:00 81.3 °F 64.1 °F 30.06 in SSE 0.9 mph 3.5 mph 56 % 0.00 in
15:05 81.3 °F 65.1 °F 30.05 in South 0.6 mph 3.5 mph 58 % 0.00 in
15:06 81.3 °F 64.6 °F 30.05 in South 1.0 mph 4.0 mph 57 % 0.00 in
15:11 81.4 °F 65.7 °F 30.05 in SSE 0.5 mph 2.0 mph 59 % 0.00 in
15:16 81.6 °F 66.4 °F 30.05 in South 1.0 mph 6.0 mph 60 % 0.00 in
15:21 81.4 °F 65.2 °F 30.05 in SSE 3.0 mph 10.0 mph 58 % 0.00 in
15:26 81.4 °F 65.7 °F 30.05 in South 2.0 mph 6.0 mph 59 % 0.00 in
15:31 81.1 °F 64.9 °F 30.04 in SSE 0.4 mph 3.5 mph 58 % 0.00 in
15:36 80.5 °F 64.4 °F 30.04 in SE 0.2 mph 4.6 mph 58 % 0.00 in
15:41 80.3 °F 65.1 °F 30.04 in SSE 1.0 mph 6.0 mph 60 % 0.00 in
15:46 80.3 °F 65.6 °F 30.04 in Calm   6.0 mph 61 % 0.00 in
15:51 80.4 °F 65.7 °F 30.04 in SSW 1.0 mph 3.0 mph 61 % 0.00 in
15:56 80.4 °F 63.3 °F 30.04 in SSW 1.0 mph 4.0 mph 56 % 0.00 in
16:01 80.5 °F 65.3 °F 30.03 in South 0.6 mph 3.5 mph 60 % 0.00 in
16:06 80.5 °F 64.4 °F 30.03 in SE 0.7 mph 3.5 mph 58 % 0.00 in
16:11 80.4 °F 64.3 °F 30.03 in WSW 0.2 mph 1.2 mph 58 % 0.00 in
16:16 80.5 °F 64.4 °F 30.03 in SSE 0.7 mph 3.0 mph 58 % 0.00 in
16:21 80.6 °F 62.9 °F 30.03 in SE 1.9 mph 5.0 mph 55 % 0.00 in
16:26 80.3 °F 63.2 °F 30.03 in SE 5.4 mph 8.1 mph 56 % 0.00 in
16:31 80.2 °F 63.1 °F 30.03 in South 1.5 mph 5.8 mph 56 % 0.00 in
16:36 80.1 °F 63.5 °F 30.03 in SE 1.2 mph 3.5 mph 57 % 0.00 in
16:41 80.1 °F 63.0 °F 30.03 in SW 2.1 mph 4.0 mph 56 % 0.00 in
16:46 80.3 °F 63.2 °F 30.03 in SSE 1.1 mph 3.5 mph 56 % 0.00 in
16:51 80.2 °F 62.0 °F 30.03 in SW 1.3 mph 8.1 mph 54 % 0.00 in
16:56 80.2 °F 62.6 °F 30.03 in South 0.8 mph 2.3 mph 55 % 0.00 in
17:01 80.2 °F 61.5 °F 30.03 in SE 1.2 mph 2.3 mph 53 % 0.00 in
17:06 79.9 °F 60.7 °F 30.03 in SE 2.6 mph 11.5 mph 52 % 0.00 in
17:11 79.1 °F 61.0 °F 30.03 in SE 4.5 mph 10.4 mph 54 % 0.00 in
17:17 78.4 °F 60.9 °F 30.03 in SSE 2.0 mph 6.9 mph 55 % 0.00 in
17:21 78.1 °F 61.6 °F 30.03 in SE 2.8 mph 4.0 mph 57 % 0.00 in
17:27 77.9 °F 60.4 °F 30.03 in SE 0.4 mph 1.2 mph 55 % 0.00 in
17:32 77.8 °F 60.3 °F 30.03 in SSE 1.5 mph 5.0 mph 55 % 0.00 in
17:37 77.5 °F 59.5 °F 30.02 in SSE 3.5 mph 8.1 mph 54 % 0.00 in
17:42 77.3 °F 59.4 °F 30.03 in SSE 0.3 mph 4.6 mph 54 % 0.00 in
17:47 77.2 °F 59.3 °F 30.02 in SSE 1.1 mph 2.3 mph 54 % 0.00 in
17:52 77.2 °F 59.3 °F 30.02 in SSE 0.7 mph 2.3 mph 54 % 0.00 in
17:57 77.3 °F 58.8 °F 30.02 in SSW 0.5 mph 1.2 mph 53 % 0.00 in
18:02 77.4 °F 58.9 °F 30.02 in South 1.4 mph 3.5 mph 53 % 0.00 in
18:07 77.4 °F 58.4 °F 30.02 in SE 2.2 mph 4.6 mph 52 % 0.00 in
18:12 77.4 °F 57.9 °F 30.02 in SSW 1.5 mph 4.0 mph 51 % 0.00 in
18:17 77.3 °F 57.8 °F 30.01 in SSW 1.3 mph 3.5 mph 51 % 0.00 in
18:22 77.2 °F 57.7 °F 30.01 in South 0.1 mph 2.3 mph 51 % 0.00 in
18:27 77.0 °F 56.9 °F 30.01 in ESE 1.1 mph 4.6 mph 50 % 0.00 in
18:32 76.7 °F 57.2 °F 30.01 in SSE 0.9 mph 8.1 mph 51 % 0.00 in
18:37 76.4 °F 56.9 °F 30.01 in SE 1.4 mph 3.5 mph 51 % 0.00 in
18:42 76.2 °F 57.8 °F 30.01 in SE 1.2 mph 3.5 mph 53 % 0.00 in
18:47 76.1 °F 58.8 °F 30.01 in SE 0.2 mph 1.2 mph 55 % 0.00 in
18:52 76.0 °F 58.7 °F 30.01 in Calm     55 % 0.00 in
18:57 75.8 °F 58.5 °F 30.01 in SE 1.2 mph 3.5 mph 55 % 0.00 in
18:58 75.8 °F 58.5 °F 30.01 in SE 0.1 mph 3.5 mph 55 % 0.00 in
19:03 75.7 °F 58.9 °F 30.00 in SE 1.8 mph 3.0 mph 56 % 0.00 in
19:08 75.5 °F 59.2 °F 30.00 in SE 1.6 mph 3.5 mph 57 % 0.00 in
19:13 75.4 °F 59.1 °F 30.00 in SE 2.9 mph 5.8 mph 57 % 0.00 in
19:19 75.2 °F 59.4 °F 30.00 in SE 0.3 mph 3.5 mph 58 % 0.00 in
19:24 75.0 °F 59.7 °F 30.00 in Calm   5.8 mph 59 % 0.00 in
19:29 74.9 °F 59.6 °F 30.00 in SE 1.7 mph 5.0 mph 59 % 0.00 in
19:34 74.8 °F 60.0 °F 30.00 in Calm   3.5 mph 60 % 0.00 in
19:39 74.7 °F 60.4 °F 30.00 in Calm   1.2 mph 61 % 0.00 in
19:44 74.6 °F 60.3 °F 30.00 in SE 3.8 mph 6.9 mph 61 % 0.00 in
19:49 74.4 °F 60.5 °F 30.00 in SE 2.3 mph 3.5 mph 62 % 0.00 in
19:54 74.3 °F 60.9 °F 30.00 in Calm   1.2 mph 63 % 0.00 in
19:59 74.3 °F 61.8 °F 30.00 in East 0.2 mph 3.5 mph 65 % 0.00 in
20:04 74.2 °F 62.1 °F 30.00 in WSW 0.3 mph 3.5 mph 66 % 0.00 in
20:09 74.1 °F 62.4 °F 30.00 in Calm   2.3 mph 67 % 0.00 in
20:14 74.0 °F 62.3 °F 30.00 in SE 0.2 mph 2.3 mph 67 % 0.00 in
20:19 73.9 °F 62.2 °F 30.00 in Calm   1.2 mph 67 % 0.00 in
20:24 73.8 °F 62.6 °F 30.00 in SE 0.7 mph 3.5 mph 68 % 0.00 in
20:29 73.7 °F 62.5 °F 30.00 in Calm   1.2 mph 68 % 0.00 in
20:34 73.6 °F 62.8 °F 30.00 in Calm   1.2 mph 69 % 0.00 in
20:39 73.6 °F 62.8 °F 30.00 in WSW 0.3 mph 1.2 mph 69 % 0.00 in
20:44 73.5 °F 62.7 °F 30.00 in SSW 0.2 mph 1.2 mph 69 % 0.00 in
20:49 73.4 °F 62.6 °F 30.00 in SW 0.8 mph 2.3 mph 69 % 0.00 in
20:54 73.3 °F 62.5 °F 30.00 in Calm     69 % 0.00 in
20:59 73.2 °F 62.4 °F 30.01 in South 0.4 mph 2.0 mph 69 % 0.00 in
21:04 73.1 °F 62.3 °F 30.00 in SSW 1.0 mph 2.3 mph 69 % 0.00 in
21:09 73.1 °F 62.3 °F 30.00 in Calm   1.2 mph 69 % 0.00 in
21:14 73.0 °F 62.2 °F 30.00 in SE 0.1 mph 1.2 mph 69 % 0.00 in
21:19 72.9 °F 62.5 °F 30.00 in Calm   1.2 mph 70 % 0.00 in
21:24 72.8 °F 62.4 °F 30.00 in SSE 2.8 mph 5.0 mph 70 % 0.00 in
21:29 72.8 °F 62.8 °F 30.00 in Calm   2.3 mph 71 % 0.00 in
21:30 72.7 °F 62.8 °F 30.00 in Calm     71 % 0.00 in
21:35 72.7 °F 62.8 °F 30.00 in Calm     71 % 0.00 in
21:40 72.6 °F 62.7 °F 30.00 in SE 0.5 mph 2.3 mph 71 % 0.00 in
21:45 72.5 °F 62.6 °F 30.00 in SE 0.3 mph 3.5 mph 71 % 0.00 in
21:50 72.5 °F 62.6 °F 30.00 in Calm     71 % 0.00 in
21:55 72.4 °F 62.9 °F 30.00 in Calm   2.3 mph 72 % 0.00 in
22:00 72.4 °F 62.9 °F 30.00 in South 0.6 mph 2.0 mph 72 % 0.00 in
22:06 72.3 °F 62.8 °F 30.00 in SSE 1.0 mph 4.0 mph 72 % 0.00 in
22:11 72.3 °F 62.8 °F 29.99 in Calm   3.0 mph 72 % 0.00 in
22:16 72.3 °F 62.8 °F 29.99 in SE 2.0 mph 5.0 mph 72 % 0.00 in
22:21 72.3 °F 62.8 °F 29.99 in Calm   3.0 mph 72 % 0.00 in
22:26 72.3 °F 62.8 °F 29.99 in SE 1.0 mph 5.0 mph 72 % 0.00 in
22:31 72.3 °F 62.8 °F 29.99 in SE 1.0 mph 4.0 mph 72 % 0.00 in
22:36 72.3 °F 62.8 °F 29.99 in Calm   3.0 mph 72 % 0.00 in
22:41 72.3 °F 62.7 °F 29.99 in Calm   1.0 mph 72 % 0.00 in
22:46 72.2 °F 62.7 °F 29.99 in Calm   2.0 mph 72 % 0.00 in
22:50 72.2 °F 62.3 °F 29.99 in Calm   2.0 mph 71 % 0.00 in
22:56 72.2 °F 62.7 °F 29.98 in SE 1.0 mph 4.0 mph 72 % 0.00 in
23:01 72.2 °F 62.7 °F 29.98 in Calm   2.3 mph 72 % 0.00 in
23:06 72.1 °F 62.6 °F 29.97 in Calm     72 % 0.00 in
23:11 72.1 °F 63.0 °F 29.97 in Calm     73 % 0.00 in
23:16 72.1 °F 63.0 °F 29.97 in Calm     73 % 0.00 in
23:21 72.0 °F 62.5 °F 29.97 in Calm     72 % 0.00 in
23:26 72.0 °F 62.9 °F 29.97 in Calm     73 % 0.00 in
23:31 71.9 °F 62.8 °F 29.97 in Calm     73 % 0.00 in
23:36 71.8 °F 62.7 °F 29.97 in Calm     73 % 0.00 in
23:41 71.7 °F 62.6 °F 29.97 in Calm     73 % 0.00 in
23:46 71.7 °F 63.0 °F 29.96 in Calm     74 % 0.00 in
23:51 71.6 °F 62.9 °F 29.96 in Calm     74 % 0.00 in
23:56 71.5 °F 63.2 °F 29.96 in Calm     75 % 0.00 in
Crab Meadow Weather
Compliments of Weather Underground - 3 mb

Script developed by  Jim McMurry - jmcmurry@mwt.net Adapted for the template by  Wim van der Kuil - Leuven-Template.eu

Recycling: Recycling one aluminum can saves enough energy to run a TV for three hours -- or the equivalent of a half a gallon of gasoline.